createdAt,value
2019-01-14T05:04:04.508Z,99288.062
2019-01-14T05:07:32.396Z,99319.625
2019-01-14T05:11:00.263Z,99291.125
2019-01-14T05:14:28.106Z,99292.171
2019-01-14T05:17:55.968Z,99304.929
2019-01-14T05:21:23.882Z,99307.421
2019-01-14T05:24:51.801Z,99311.609
2019-01-14T05:28:20.141Z,99320.75
2019-01-14T05:31:48.071Z,99329.75
2019-01-14T05:35:16.985Z,99329.703
2019-01-14T05:38:45.022Z,99332.359
2019-01-14T05:42:13.322Z,99351.085
2019-01-14T05:45:41.490Z,99342.828
2019-01-14T05:49:09.766Z,99349.906
2019-01-14T05:52:37.719Z,99347.687
2019-01-14T05:56:05.587Z,99352.062
2019-01-14T05:59:34.433Z,99352.593
2019-01-14T06:03:02.299Z,99374.687
2019-01-14T06:06:30.165Z,99377.14
2019-01-14T06:09:58.099Z,99398.968
2019-01-14T06:13:25.960Z,99386.734
2019-01-14T06:16:53.829Z,99390.796
2019-01-14T06:20:21.681Z,99390.359
2019-01-14T06:23:49.548Z,99404.937
2019-01-14T06:27:17.420Z,99420.937
2019-01-14T06:30:45.311Z,99419.914
2019-01-14T06:34:13.171Z,99412.89
2019-01-14T06:37:41.043Z,99435.812
2019-01-14T06:41:09.901Z,99439.765
2019-01-14T06:44:37.763Z,99442.531
2019-01-14T06:48:06.624Z,99466.078
2019-01-14T06:51:34.550Z,99476.625
2019-01-14T06:55:02.417Z,99484.851
2019-01-14T06:58:31.272Z,99471.531
2019-01-14T07:01:59.125Z,99492.062
2019-01-14T07:05:27.988Z,99479.984
2019-01-14T07:08:55.850Z,99492.468
2019-01-14T07:12:23.820Z,99493.367
2019-01-14T07:15:51.629Z,99500.906
2019-01-14T07:19:19.490Z,99510.734
2019-01-14T07:22:47.356Z,99514.71
2019-01-14T07:26:15.227Z,99522.89
2019-01-14T07:29:43.073Z,99550.718
2019-01-14T07:33:10.932Z,99533.078
2019-01-14T07:36:38.836Z,99548.406
2019-01-14T07:40:07.688Z,99539.828
2019-01-14T07:43:35.556Z,99542.625
2019-01-14T07:47:04.390Z,99543.546
2019-01-14T07:50:34.236Z,99557.867
2019-01-14T07:54:02.177Z,99577.375
2019-01-14T07:57:30.021Z,99565.156
2019-01-14T08:00:57.887Z,99562.57
2019-01-14T08:04:25.745Z,99590.632
2019-01-14T08:07:53.601Z,99610.234
2019-01-14T08:11:21.472Z,99573.328
2019-01-14T08:14:49.387Z,99597.046
2019-01-14T08:18:17.235Z,99597.742
2019-01-14T08:21:45.104Z,99612.89
2019-01-14T08:25:12.970Z,99609.328
2019-01-14T08:28:40.822Z,99609.218
2019-01-14T08:32:08.685Z,99612.468
2019-01-14T08:35:36.544Z,99622.046
2019-01-14T08:39:04.406Z,99637.515
2019-01-14T08:42:33.270Z,99623.703
2019-01-14T08:46:01.129Z,99626.359
2019-01-14T08:49:28.997Z,99652.187
2019-01-14T08:52:56.864Z,99646.46
2019-01-14T08:56:24.739Z,99656.398
2019-01-14T08:59:53.647Z,99649.015
2019-01-14T09:03:21.523Z,99656.515
2019-01-14T09:06:49.391Z,99653.109
2019-01-14T09:10:17.246Z,99656.265
2019-01-14T09:13:45.107Z,99700
2019-01-14T09:17:12.978Z,99651.515
2019-01-14T09:20:40.836Z,99663.109
2019-01-14T09:24:08.759Z,99659.562
2019-01-14T09:27:36.617Z,99688.609
2019-01-14T09:31:04.493Z,99687.531
2019-01-14T09:34:32.339Z,99686.203
2019-01-14T09:38:00.209Z,99708.609
2019-01-14T09:41:28.081Z,99702.82
2019-01-14T09:44:55.978Z,99706.296
2019-01-14T09:48:23.856Z,99717.218
2019-01-14T09:51:51.730Z,99710.921
2019-01-14T09:55:19.633Z,99712.82
2019-01-14T09:58:47.488Z,99725.601
2019-01-14T10:02:16.344Z,99731.89
2019-01-14T10:05:44.295Z,99729.25
2019-01-14T10:09:12.147Z,99729
2019-01-14T10:12:41.025Z,99718.671
2019-01-14T10:16:08.896Z,99756.046
2019-01-14T10:19:36.747Z,99727.625
2019-01-14T10:23:04.617Z,99737.265
2019-01-14T10:26:33.521Z,99737.046
2019-01-14T10:30:01.390Z,99754.945
2019-01-14T10:33:29.259Z,99754.859
2019-01-14T10:36:57.131Z,99756.617
2019-01-14T10:40:24.997Z,99739.875
2019-01-14T10:43:52.855Z,99754.093
2019-01-14T10:47:20.722Z,99758.304
2019-01-14T10:50:48.632Z,99759.203
2019-01-14T10:54:16.497Z,99784.796
2019-01-14T10:57:44.383Z,99775.218
2019-01-14T11:01:12.253Z,99802.546
2019-01-14T11:04:41.117Z,99791.171
2019-01-14T11:08:08.993Z,99815.921
2019-01-14T11:11:36.968Z,99811.75
2019-01-14T11:15:04.850Z,99820.234
2019-01-14T11:18:32.776Z,99823.367
2019-01-14T11:22:00.672Z,99832.109
2019-01-14T11:25:28.547Z,99836.453
2019-01-14T11:28:57.425Z,99847.875
2019-01-14T11:32:25.700Z,99841.312
2019-01-14T11:35:53.554Z,99855.312
2019-01-14T11:39:21.444Z,99859.218
2019-01-14T11:42:50.309Z,99862.375
2019-01-14T11:46:18.173Z,99856.14
2019-01-14T11:49:46.063Z,99869.648
2019-01-14T11:53:14.022Z,99881.148
2019-01-14T11:56:41.898Z,99879.203
2019-01-14T12:00:09.788Z,99874.14
2019-01-14T12:03:37.699Z,99876.531
2019-01-14T12:07:05.574Z,99894.031
2019-01-14T12:10:33.489Z,99889.625
2019-01-14T12:14:01.383Z,99896.953
2019-01-14T12:17:29.239Z,99901.281
2019-01-14T12:20:57.119Z,99919.234
2019-01-14T12:24:25.002Z,99947.593
2019-01-14T12:27:53.070Z,99907.109
2019-01-14T12:31:20.934Z,99931.265
2019-01-14T12:34:48.906Z,99938.984
2019-01-14T12:38:16.816Z,99942.359
2019-01-14T12:41:50.920Z,99944.937
2019-01-14T12:45:15.519Z,99954.453
2019-01-14T12:48:44.406Z,99959.164
2019-01-14T12:52:12.283Z,99971.546
2019-01-14T12:55:40.159Z,99957.359
2019-01-14T12:59:08.084Z,99956.929
2019-01-14T13:02:35.970Z,99983.179
2019-01-14T13:06:04.039Z,99995.5
2019-01-14T13:09:33.567Z,100011.31
2019-01-14T13:13:02.847Z,100015.07
2019-01-14T13:16:32.774Z,100006.63
2019-01-14T13:20:01.679Z,100003.87
2019-01-14T13:23:32.351Z,100012.79
2019-01-14T13:27:01.121Z,100022.32
2019-01-14T13:30:28.989Z,100034.42
2019-01-14T13:33:56.882Z,100030.89
2019-01-14T13:37:25.800Z,100020.23
2019-01-14T13:40:54.688Z,100007.63
2019-01-14T13:44:22.580Z,100018.14
2019-01-14T13:47:50.463Z,100036.17
2019-01-14T13:51:18.324Z,100062.24
2019-01-14T13:54:46.189Z,100051.35
2019-01-14T13:58:14.268Z,100056.25
2019-01-14T14:01:42.125Z,100080.96
2019-01-14T14:05:10.010Z,100076.6
2019-01-14T14:08:37.896Z,100075.42
2019-01-14T14:12:05.756Z,100094.82
2019-01-14T14:15:33.629Z,100110.28
2019-01-14T14:19:01.637Z,100087.17
2019-01-14T14:22:29.738Z,100093.46
2019-01-14T14:25:57.614Z,100101.46
2019-01-14T14:29:25.535Z,100130.17
2019-01-14T14:32:54.391Z,100116.95
2019-01-14T14:36:22.267Z,100136.29
2019-01-14T14:39:50.138Z,100137.82
2019-01-14T14:43:18.021Z,100156.66
2019-01-14T14:46:46.878Z,100133.01
2019-01-14T14:50:14.755Z,100141.2
2019-01-14T14:53:42.624Z,100142.71
2019-01-14T14:57:10.465Z,100156.73
2019-01-14T15:00:38.326Z,100169.64
2019-01-14T15:04:06.269Z,100148.46
2019-01-14T15:07:34.198Z,100151.95
2019-01-14T15:11:02.065Z,100156.21
2019-01-14T15:14:29.935Z,100168.78
2019-01-14T15:17:57.821Z,100187.97
2019-01-14T15:21:25.664Z,100174.77
2019-01-14T15:24:53.604Z,100185.89
2019-01-14T15:28:22.461Z,100195.04
2019-01-14T15:31:50.312Z,100194.22
2019-01-14T15:35:18.171Z,100200.11
2019-01-14T15:38:46.055Z,100203.04
2019-01-14T15:42:14.029Z,100206.65
2019-01-14T15:45:42.004Z,100219.35
2019-01-14T15:49:09.847Z,100216.84
2019-01-14T15:52:37.787Z,100231.85
2019-01-14T15:56:05.711Z,100252.14
2019-01-14T15:59:33.691Z,100248.09
2019-01-14T16:03:01.549Z,100239.46
2019-01-14T16:06:30.414Z,100264.43
2019-01-14T16:09:58.446Z,100267.23
2019-01-14T16:13:26.318Z,100258.57
2019-01-14T16:16:54.234Z,100280.02
2019-01-14T16:20:22.112Z,100282.82
2019-01-14T16:23:50.984Z,100278.62
2019-01-14T16:27:19.891Z,100286.98
2019-01-14T16:30:47.850Z,100306.98
2019-01-14T16:34:15.711Z,100292.17
2019-01-14T16:37:43.594Z,100281.71
2019-01-14T16:41:11.458Z,100283.31
2019-01-14T16:44:39.361Z,100291.15
2019-01-14T16:48:07.289Z,100290.23
2019-01-14T16:51:35.224Z,100294.56
2019-01-14T16:55:03.093Z,100298.42
2019-01-14T16:58:31.937Z,100305.41
2019-01-14T17:01:59.821Z,100310.22
2019-01-14T17:05:27.702Z,100308.96
2019-01-14T17:08:55.560Z,100302.59
2019-01-14T17:12:23.486Z,100323.39
2019-01-14T17:15:51.382Z,100329.23
2019-01-14T17:19:20.254Z,100338.09
2019-01-14T17:22:48.135Z,100325.64
2019-01-14T17:26:16.026Z,100325.64
2019-01-14T17:29:43.901Z,100334.73
2019-01-14T17:33:11.846Z,100331.89
2019-01-14T17:36:39.658Z,100339.04
2019-01-14T17:40:07.531Z,100344.64
2019-01-14T17:43:35.422Z,100345.27
2019-01-14T17:47:03.398Z,100357.34
2019-01-14T17:50:31.259Z,100356.01
2019-01-14T17:53:59.140Z,100358.73
2019-01-14T17:57:27.048Z,100363.17
2019-01-14T18:00:54.918Z,100356.76
2019-01-14T18:04:22.795Z,100378.28
2019-01-14T18:07:52.434Z,100374.93
2019-01-14T18:11:20.280Z,100376.03
2019-01-14T18:14:48.166Z,100385.1
2019-01-14T18:18:17.040Z,100396.7
2019-01-14T18:21:44.886Z,100383.45
2019-01-14T18:25:12.761Z,100400.5
2019-01-14T18:28:40.625Z,100395.26
2019-01-14T18:32:08.487Z,100395.42
2019-01-14T18:35:36.351Z,100397.65
2019-01-14T18:39:04.283Z,100406.32
2019-01-14T18:42:32.150Z,100413.21
2019-01-14T18:46:00.034Z,100427.44
2019-01-14T18:49:28.979Z,100427.92
2019-01-14T18:52:56.831Z,100420.26
2019-01-14T18:56:24.701Z,100429.67
2019-01-14T18:59:52.635Z,100438.79
2019-01-14T19:03:20.492Z,100434.32
2019-01-14T19:06:48.364Z,100442.17
2019-01-14T19:10:17.244Z,100439.31
2019-01-14T19:13:45.125Z,100444.74
2019-01-14T19:17:12.994Z,100442.37
2019-01-14T19:20:40.865Z,100441.41
2019-01-14T19:24:09.752Z,100454.5
2019-01-14T19:27:37.623Z,100464.39
2019-01-14T19:31:07.484Z,100466.14
2019-01-14T19:34:35.347Z,100472.21
2019-01-14T19:38:03.220Z,100476.5
2019-01-14T19:41:31.093Z,100464.82
2019-01-14T19:44:59.012Z,100477.9
2019-01-14T19:48:26.871Z,100475.84
2019-01-14T19:51:54.752Z,100487.63
2019-01-14T19:55:22.603Z,100489.7
2019-01-14T19:58:50.474Z,100489.36
2019-01-14T20:02:18.349Z,100489.84
2019-01-14T20:05:46.266Z,100496.39
2019-01-14T20:09:14.139Z,100503.56
2019-01-14T20:12:42.029Z,100504.06
2019-01-14T20:16:09.907Z,100512.54
2019-01-14T20:19:37.773Z,100504.56
2019-01-14T20:23:05.650Z,100512.7
2019-01-14T20:26:33.590Z,100513.84
2019-01-14T20:30:01.501Z,100513.06
2019-01-14T20:33:29.367Z,100511.78
2019-01-14T20:36:57.253Z,100529.37
2019-01-14T20:40:25.117Z,100516.5
2019-01-14T20:43:52.974Z,100521.16
2019-01-14T20:47:20.855Z,100533.62
2019-01-14T20:50:48.802Z,100539.7
2019-01-14T20:54:16.663Z,100537.48
2019-01-14T20:57:44.548Z,100538.28
2019-01-14T21:01:13.451Z,100539.01
2019-01-14T21:04:41.604Z,100540.28
2019-01-14T21:08:09.660Z,100539.35
2019-01-14T21:11:37.572Z,100542.07
2019-01-14T21:15:05.455Z,100531.71
2019-01-14T21:18:33.455Z,100531.41
2019-01-14T21:22:01.352Z,100537.81
2019-01-14T21:25:29.216Z,100539.56
2019-01-14T21:28:57.106Z,100544.2
2019-01-14T21:32:26.681Z,100556.32
2019-01-14T21:35:55.696Z,100561.79
2019-01-14T21:39:24.597Z,100570.88
2019-01-14T21:42:52.480Z,100561.49
2019-01-14T21:46:20.374Z,100553.35
2019-01-14T21:49:48.289Z,100562.92
2019-01-14T21:53:16.189Z,100561.02
2019-01-14T21:56:44.063Z,100564.68
2019-01-14T22:00:11.958Z,100574.71
2019-01-14T22:03:39.863Z,100566.59
2019-01-14T22:07:07.776Z,100568.53
2019-01-14T22:10:36.101Z,100576.37
2019-01-14T22:14:03.612Z,100576.67
2019-01-14T22:17:31.484Z,100569.83
2019-01-14T22:20:59.391Z,100590.25
2019-01-14T22:24:27.279Z,100582.09
2019-01-14T22:27:55.159Z,100603.28
2019-01-14T22:31:23.087Z,100600.42
2019-01-14T22:34:50.918Z,100579.21
2019-01-14T22:38:18.910Z,100587.02
2019-01-14T22:41:47.780Z,100605.18
2019-01-14T22:45:15.693Z,100605.82
2019-01-14T22:48:43.579Z,100598.32
2019-01-14T22:52:11.475Z,100608.06
2019-01-14T22:55:39.371Z,100601.36
2019-01-14T22:59:07.290Z,100615.21
